sensor_id;sensor_type;location;lat;lon;timestamp;pressure;altitude;pressure_sealevel;temperature;humidity
75536;BME280;64119;52.070;20.804;2022-10-13T00:00:02;101392.31;;;4.46;75.71
75536;BME280;64119;52.070;20.804;2022-10-13T00:02:59;101391.67;;;4.36;75.77
75536;BME280;64119;52.070;20.804;2022-10-13T00:05:28;101388.98;;;4.28;75.87
75536;BME280;64119;52.070;20.804;2022-10-13T00:07:55;101391.16;;;4.25;76.07
75536;BME280;64119;52.070;20.804;2022-10-13T00:10:22;101388.81;;;4.20;75.79
75536;BME280;64119;52.070;20.804;2022-10-13T00:12:49;101387.70;;;4.14;75.94
75536;BME280;64119;52.070;20.804;2022-10-13T00:15:17;101386.56;;;4.09;76.02
75536;BME280;64119;52.070;20.804;2022-10-13T00:17:44;101385.14;;;4.02;76.26
75536;BME280;64119;52.070;20.804;2022-10-13T00:20:10;101392.02;;;4.06;77.00
75536;BME280;64119;52.070;20.804;2022-10-13T00:22:37;101387.67;;;4.05;77.29
75536;BME280;64119;52.070;20.804;2022-10-13T00:25:04;101388.70;;;4.06;77.19
75536;BME280;64119;52.070;20.804;2022-10-13T00:27:30;101389.77;;;4.08;77.44
75536;BME280;64119;52.070;20.804;2022-10-13T00:29:56;101389.05;;;4.10;77.61
75536;BME280;64119;52.070;20.804;2022-10-13T00:32:23;101385.77;;;4.12;78.46
75536;BME280;64119;52.070;20.804;2022-10-13T00:34:49;101388.38;;;4.10;77.21
75536;BME280;64119;52.070;20.804;2022-10-13T00:37:17;101384.27;;;4.02;76.88
75536;BME280;64119;52.070;20.804;2022-10-13T00:39:43;101387.25;;;3.98;76.40
75536;BME280;64119;52.070;20.804;2022-10-13T00:42:11;101388.05;;;3.92;76.64
75536;BME280;64119;52.070;20.804;2022-10-13T00:47:24;101379.88;;;3.80;76.40
75536;BME280;64119;52.070;20.804;2022-10-13T00:49:52;101377.45;;;3.74;76.26
75536;BME280;64119;52.070;20.804;2022-10-13T00:52:20;101381.94;;;3.70;76.34
75536;BME280;64119;52.070;20.804;2022-10-13T00:54:48;101367.25;;;3.59;76.41
75536;BME280;64119;52.070;20.804;2022-10-13T00:57:17;101374.42;;;3.59;76.66
75536;BME280;64119;52.070;20.804;2022-10-13T00:59:46;101372.65;;;3.55;76.61
75536;BME280;64119;52.070;20.804;2022-10-13T01:02:13;101371.35;;;3.51;76.74
75536;BME280;64119;52.070;20.804;2022-10-13T01:04:42;101365.98;;;3.51;76.95
75536;BME280;64119;52.070;20.804;2022-10-13T01:07:09;101358.45;;;3.48;77.55
75536;BME280;64119;52.070;20.804;2022-10-13T01:09:36;101367.58;;;3.55;77.68
75536;BME280;64119;52.070;20.804;2022-10-13T01:18:00;101353.43;;;3.50;78.17
75536;BME280;64119;52.070;20.804;2022-10-13T01:20:48;101354.94;;;3.53;78.60
75536;BME280;64119;52.070;20.804;2022-10-13T01:26:16;101350.67;;;3.54;77.22
75536;BME280;64119;52.070;20.804;2022-10-13T01:29:06;101353.94;;;3.50;76.92
75536;BME280;64119;52.070;20.804;2022-10-13T01:34:24;101348.07;;;3.34;76.22
75536;BME280;64119;52.070;20.804;2022-10-13T01:37:27;101349.96;;;3.31;76.40
75536;BME280;64119;52.070;20.804;2022-10-13T01:40:08;101344.01;;;3.21;76.53
75536;BME280;64119;52.070;20.804;2022-10-13T01:42:57;101348.90;;;3.18;76.49
75536;BME280;64119;52.070;20.804;2022-10-13T01:45:35;101347.36;;;3.11;76.73
75536;BME280;64119;52.070;20.804;2022-10-13T01:48:04;101337.52;;;3.01;76.64
75536;BME280;64119;52.070;20.804;2022-10-13T01:50:38;101345.23;;;3.00;76.65
75536;BME280;64119;52.070;20.804;2022-10-13T01:53:05;101342.88;;;2.99;77.06
75536;BME280;64119;52.070;20.804;2022-10-13T01:55:32;101345.13;;;3.02;77.92
75536;BME280;64119;52.070;20.804;2022-10-13T01:57:58;101348.23;;;3.04;77.78
75536;BME280;64119;52.070;20.804;2022-10-13T02:00:25;101344.94;;;3.06;77.99
75536;BME280;64119;52.070;20.804;2022-10-13T02:05:44;101340.98;;;3.12;78.53
75536;BME280;64119;52.070;20.804;2022-10-13T02:13:16;101330.53;;;2.96;77.27
75536;BME280;64119;52.070;20.804;2022-10-13T02:15:49;101330.92;;;2.91;77.54
75536;BME280;64119;52.070;20.804;2022-10-13T02:18:19;101334.30;;;2.90;78.09
75536;BME280;64119;52.070;20.804;2022-10-13T02:20:49;101332.10;;;2.89;77.42
75536;BME280;64119;52.070;20.804;2022-10-13T02:23:16;101326.81;;;2.85;77.06
75536;BME280;64119;52.070;20.804;2022-10-13T02:25:44;101322.55;;;2.77;76.91
75536;BME280;64119;52.070;20.804;2022-10-13T02:28:12;101316.57;;;2.68;77.15
75536;BME280;64119;52.070;20.804;2022-10-13T02:30:43;101318.50;;;2.61;77.68
75536;BME280;64119;52.070;20.804;2022-10-13T02:33:11;101315.80;;;2.60;78.55
75536;BME280;64119;52.070;20.804;2022-10-13T02:35:38;101313.30;;;2.60;78.79
75536;BME280;64119;52.070;20.804;2022-10-13T02:38:05;101314.91;;;2.67;79.15
75536;BME280;64119;52.070;20.804;2022-10-13T02:40:32;101311.94;;;2.72;79.34
75536;BME280;64119;52.070;20.804;2022-10-13T02:42:58;101316.52;;;2.76;79.02
75536;BME280;64119;52.070;20.804;2022-10-13T02:45:25;101317.77;;;2.80;78.92
75536;BME280;64119;52.070;20.804;2022-10-13T02:47:54;101320.42;;;2.84;78.40
75536;BME280;64119;52.070;20.804;2022-10-13T02:50:20;101317.22;;;2.82;78.75
75536;BME280;64119;52.070;20.804;2022-10-13T02:52:49;101316.98;;;2.82;78.14
75536;BME280;64119;52.070;20.804;2022-10-13T02:55:16;101323.08;;;2.84;78.27
75536;BME280;64119;52.070;20.804;2022-10-13T02:57:42;101323.38;;;2.82;77.66
75536;BME280;64119;52.070;20.804;2022-10-13T03:00:09;101312.30;;;2.74;77.26
75536;BME280;64119;52.070;20.804;2022-10-13T03:02:36;101322.03;;;2.72;77.37
75536;BME280;64119;52.070;20.804;2022-10-13T03:05:03;101322.60;;;2.64;77.54
75536;BME280;64119;52.070;20.804;2022-10-13T03:07:29;101318.95;;;2.55;77.53
75536;BME280;64119;52.070;20.804;2022-10-13T03:09:55;101317.14;;;2.46;78.11
75536;BME280;64119;52.070;20.804;2022-10-13T03:12:21;101313.77;;;2.38;77.32
75536;BME280;64119;52.070;20.804;2022-10-13T03:14:48;101317.03;;;2.36;77.85
75536;BME280;64119;52.070;20.804;2022-10-13T03:17:15;101318.79;;;2.38;78.64
75536;BME280;64119;52.070;20.804;2022-10-13T03:19:41;101317.30;;;2.42;78.94
75536;BME280;64119;52.070;20.804;2022-10-13T03:22:09;101314.52;;;2.47;79.40
75536;BME280;64119;52.070;20.804;2022-10-13T03:24:35;101311.34;;;2.49;79.70
75536;BME280;64119;52.070;20.804;2022-10-13T03:27:02;101310.54;;;2.53;79.49
75536;BME280;64119;52.070;20.804;2022-10-13T03:29:28;101309.84;;;2.55;79.38
75536;BME280;64119;52.070;20.804;2022-10-13T03:31:55;101304.19;;;2.59;79.01
75536;BME280;64119;52.070;20.804;2022-10-13T03:34:21;101303.77;;;2.57;78.87
75536;BME280;64119;52.070;20.804;2022-10-13T03:36:48;101304.94;;;2.53;79.01
75536;BME280;64119;52.070;20.804;2022-10-13T03:39:14;101293.25;;;2.47;79.34
75536;BME280;64119;52.070;20.804;2022-10-13T03:41:41;101303.20;;;2.49;79.78
75536;BME280;64119;52.070;20.804;2022-10-13T03:44:10;101303.95;;;2.48;79.33
75536;BME280;64119;52.070;20.804;2022-10-13T03:46:38;101301.46;;;2.44;79.65
75536;BME280;64119;52.070;20.804;2022-10-13T03:49:04;101304.70;;;2.45;80.09
75536;BME280;64119;52.070;20.804;2022-10-13T03:51:30;101303.42;;;2.46;80.17
75536;BME280;64119;52.070;20.804;2022-10-13T03:53:57;101300.54;;;2.42;80.12
75536;BME280;64119;52.070;20.804;2022-10-13T03:56:25;101303.98;;;2.43;80.13
75536;BME280;64119;52.070;20.804;2022-10-13T03:58:58;101303.42;;;2.41;79.94
75536;BME280;64119;52.070;20.804;2022-10-13T04:01:27;101307.44;;;2.39;79.96
75536;BME280;64119;52.070;20.804;2022-10-13T04:03:58;101304.55;;;2.38;80.36
75536;BME280;64119;52.070;20.804;2022-10-13T04:06:25;101305.73;;;2.36;80.46
75536;BME280;64119;52.070;20.804;2022-10-13T04:08:52;101307.95;;;2.34;80.08
75536;BME280;64119;52.070;20.804;2022-10-13T04:11:18;101311.54;;;2.33;79.44
75536;BME280;64119;52.070;20.804;2022-10-13T04:13:49;101302.09;;;2.26;80.39
75536;BME280;64119;52.070;20.804;2022-10-13T04:16:21;101314.23;;;2.27;79.71
75536;BME280;64119;52.070;20.804;2022-10-13T04:19:01;101312.36;;;2.27;79.97
75536;BME280;64119;52.070;20.804;2022-10-13T04:21:30;101310.91;;;2.25;80.54
75536;BME280;64119;52.070;20.804;2022-10-13T04:23:59;101316.73;;;2.24;80.24
75536;BME280;64119;52.070;20.804;2022-10-13T04:26:27;101321.04;;;2.23;80.31
75536;BME280;64119;52.070;20.804;2022-10-13T04:28:55;101320.79;;;2.21;80.39
75536;BME280;64119;52.070;20.804;2022-10-13T04:31:22;101324.92;;;2.22;79.98
75536;BME280;64119;52.070;20.804;2022-10-13T04:33:49;101324.12;;;2.19;79.98
75536;BME280;64119;52.070;20.804;2022-10-13T04:36:17;101326.71;;;2.17;79.89
75536;BME280;64119;52.070;20.804;2022-10-13T04:38:45;101328.27;;;2.12;79.64
75536;BME280;64119;52.070;20.804;2022-10-13T04:41:14;101330.08;;;2.11;79.80
75536;BME280;64119;52.070;20.804;2022-10-13T04:43:40;101327.70;;;2.08;79.44
75536;BME280;64119;52.070;20.804;2022-10-13T04:46:15;101324.46;;;2.07;79.80
75536;BME280;64119;52.070;20.804;2022-10-13T04:48:42;101321.45;;;2.05;79.56
75536;BME280;64119;52.070;20.804;2022-10-13T04:51:11;101322.39;;;2.09;80.78
75536;BME280;64119;52.070;20.804;2022-10-13T04:53:39;101324.11;;;2.16;81.06
75536;BME280;64119;52.070;20.804;2022-10-13T04:56:13;101324.67;;;2.23;81.33
75536;BME280;64119;52.070;20.804;2022-10-13T04:58:42;101327.80;;;2.30;80.86
75536;BME280;64119;52.070;20.804;2022-10-13T05:01:15;101327.50;;;2.36;80.96
75536;BME280;64119;52.070;20.804;2022-10-13T05:03:59;101327.21;;;2.43;81.50
75536;BME280;64119;52.070;20.804;2022-10-13T05:06:29;101325.10;;;2.48;81.36
75536;BME280;64119;52.070;20.804;2022-10-13T05:08:56;101327.30;;;2.51;80.90
75536;BME280;64119;52.070;20.804;2022-10-13T05:11:23;101320.60;;;2.49;80.43
75536;BME280;64119;52.070;20.804;2022-10-13T05:13:51;101328.20;;;2.57;80.71
75536;BME280;64119;52.070;20.804;2022-10-13T05:16:20;101328.56;;;2.64;80.89
75536;BME280;64119;52.070;20.804;2022-10-13T05:18:48;101329.91;;;2.72;81.17
75536;BME280;64119;52.070;20.804;2022-10-13T05:21:21;101335.55;;;2.81;81.24
75536;BME280;64119;52.070;20.804;2022-10-13T05:23:48;101330.95;;;2.93;82.45
75536;BME280;64119;52.070;20.804;2022-10-13T05:26:16;101332.05;;;3.06;81.57
75536;BME280;64119;52.070;20.804;2022-10-13T05:28:43;101332.30;;;3.18;81.11
75536;BME280;64119;52.070;20.804;2022-10-13T05:33:38;101330.41;;;3.36;80.61
75536;BME280;64119;52.070;20.804;2022-10-13T05:36:09;101327.11;;;3.40;80.28
75536;BME280;64119;52.070;20.804;2022-10-13T05:38:36;101328.54;;;3.49;80.30
75536;BME280;64119;52.070;20.804;2022-10-13T05:41:11;101332.19;;;3.62;81.61
75536;BME280;64119;52.070;20.804;2022-10-13T05:43:39;101332.82;;;3.76;80.31
75536;BME280;64119;52.070;20.804;2022-10-13T05:46:06;101331.27;;;3.88;80.86
75536;BME280;64119;52.070;20.804;2022-10-13T05:48:35;101332.03;;;4.03;80.59
75536;BME280;64119;52.070;20.804;2022-10-13T05:51:05;101330.32;;;4.20;80.74
75536;BME280;64119;52.070;20.804;2022-10-13T05:53:35;101328.91;;;4.37;80.75
75536;BME280;64119;52.070;20.804;2022-10-13T05:56:10;101341.47;;;4.61;80.76
75536;BME280;64119;52.070;20.804;2022-10-13T05:58:43;101341.47;;;4.84;80.66
75536;BME280;64119;52.070;20.804;2022-10-13T06:01:14;101341.70;;;5.04;80.21
75536;BME280;64119;52.070;20.804;2022-10-13T06:03:42;101340.75;;;5.25;81.03
75536;BME280;64119;52.070;20.804;2022-10-13T06:06:10;101339.94;;;5.45;81.05
75536;BME280;64119;52.070;20.804;2022-10-13T06:08:37;101341.42;;;5.62;80.60
75536;BME280;64119;52.070;20.804;2022-10-13T06:11:04;101339.78;;;5.78;79.87
75536;BME280;64119;52.070;20.804;2022-10-13T06:13:32;101342.96;;;5.91;80.37
75536;BME280;64119;52.070;20.804;2022-10-13T06:15:59;101345.72;;;6.09;80.28
75536;BME280;64119;52.070;20.804;2022-10-13T06:18:26;101349.20;;;6.29;80.06
75536;BME280;64119;52.070;20.804;2022-10-13T06:20:53;101352.52;;;6.46;79.68
75536;BME280;64119;52.070;20.804;2022-10-13T06:23:19;101348.89;;;6.63;79.79
75536;BME280;64119;52.070;20.804;2022-10-13T06:25:49;101350.33;;;6.82;79.33
75536;BME280;64119;52.070;20.804;2022-10-13T06:28:16;101349.30;;;7.02;78.78
75536;BME280;64119;52.070;20.804;2022-10-13T06:30:47;101347.89;;;7.15;78.48
75536;BME280;64119;52.070;20.804;2022-10-13T06:33:20;101347.05;;;7.28;79.17
75536;BME280;64119;52.070;20.804;2022-10-13T06:35:47;101343.83;;;7.42;78.29
75536;BME280;64119;52.070;20.804;2022-10-13T06:38:13;101346.47;;;7.55;78.52
75536;BME280;64119;52.070;20.804;2022-10-13T06:40:40;101335.39;;;7.64;78.59
75536;BME280;64119;52.070;20.804;2022-10-13T06:43:07;101341.70;;;7.82;78.18
75536;BME280;64119;52.070;20.804;2022-10-13T06:45:40;101341.50;;;8.04;77.50
75536;BME280;64119;52.070;20.804;2022-10-13T06:48:06;101341.50;;;8.19;76.95
75536;BME280;64119;52.070;20.804;2022-10-13T06:50:32;101339.52;;;8.24;76.49
75536;BME280;64119;52.070;20.804;2022-10-13T06:52:59;101341.09;;;8.30;76.44
75536;BME280;64119;52.070;20.804;2022-10-13T06:55:25;101342.09;;;8.36;76.81
75536;BME280;64119;52.070;20.804;2022-10-13T06:57:51;101335.67;;;8.51;76.54
75536;BME280;64119;52.070;20.804;2022-10-13T07:00:19;101344.29;;;8.83;75.67
75536;BME280;64119;52.070;20.804;2022-10-13T07:02:48;101347.33;;;9.43;73.95
75536;BME280;64119;52.070;20.804;2022-10-13T07:05:15;101338.27;;;10.43;71.47
75536;BME280;64119;52.070;20.804;2022-10-13T07:07:41;101336.98;;;11.32;68.87
75536;BME280;64119;52.070;20.804;2022-10-13T07:10:08;101338.36;;;12.19;66.44
75536;BME280;64119;52.070;20.804;2022-10-13T07:12:34;101334.46;;;12.87;64.64
75536;BME280;64119;52.070;20.804;2022-10-13T07:15:00;101333.63;;;13.46;63.09
75536;BME280;64119;52.070;20.804;2022-10-13T07:17:27;101323.70;;;14.01;62.02
75536;BME280;64119;52.070;20.804;2022-10-13T07:19:53;101315.95;;;14.62;59.67
75536;BME280;64119;52.070;20.804;2022-10-13T07:22:24;101308.92;;;15.12;58.83
75536;BME280;64119;52.070;20.804;2022-10-13T07:24:50;101306.98;;;15.66;57.19
75536;BME280;64119;52.070;20.804;2022-10-13T07:27:18;101298.41;;;16.19;55.71
75536;BME280;64119;52.070;20.804;2022-10-13T07:29:45;101302.77;;;16.70;55.06
75536;BME280;64119;52.070;20.804;2022-10-13T07:32:11;101304.27;;;17.33;54.08
75536;BME280;64119;52.070;20.804;2022-10-13T07:34:38;101294.70;;;17.80;52.01
75536;BME280;64119;52.070;20.804;2022-10-13T07:37:04;101290.17;;;18.32;51.44
75536;BME280;64119;52.070;20.804;2022-10-13T07:39:31;101287.43;;;19.10;50.92
75536;BME280;64119;52.070;20.804;2022-10-13T07:41:57;101279.11;;;19.59;48.18
75536;BME280;64119;52.070;20.804;2022-10-13T07:44:23;101287.52;;;20.05;47.58
75536;BME280;64119;52.070;20.804;2022-10-13T07:46:50;101285.23;;;20.79;44.43
75536;BME280;64119;52.070;20.804;2022-10-13T07:49:16;101284.52;;;21.02;42.69
75536;BME280;64119;52.070;20.804;2022-10-13T07:51:43;101284.11;;;21.32;42.37
75536;BME280;64119;52.070;20.804;2022-10-13T07:54:09;101277.70;;;21.96;41.54
75536;BME280;64119;52.070;20.804;2022-10-13T07:56:36;101266.77;;;22.47;39.91
75536;BME280;64119;52.070;20.804;2022-10-13T07:59:03;101262.41;;;22.87;37.70
75536;BME280;64119;52.070;20.804;2022-10-13T08:01:30;101269.48;;;23.40;36.96
75536;BME280;64119;52.070;20.804;2022-10-13T08:03:57;101274.81;;;23.74;36.36
75536;BME280;64119;52.070;20.804;2022-10-13T08:06:24;101269.50;;;24.44;35.35
75536;BME280;64119;52.070;20.804;2022-10-13T08:08:52;101269.33;;;24.89;34.74
75536;BME280;64119;52.070;20.804;2022-10-13T08:11:19;101271.35;;;26.00;33.63
75536;BME280;64119;52.070;20.804;2022-10-13T08:13:49;101259.38;;;26.69;32.94
75536;BME280;64119;52.070;20.804;2022-10-13T08:16:19;101257.20;;;27.56;30.88
75536;BME280;64119;52.070;20.804;2022-10-13T08:18:46;101260.77;;;28.02;30.15
75536;BME280;64119;52.070;20.804;2022-10-13T08:21:15;101257.16;;;28.72;27.95
75536;BME280;64119;52.070;20.804;2022-10-13T08:24:03;101250.70;;;28.57;26.10
75536;BME280;64119;52.070;20.804;2022-10-13T08:26:29;101247.72;;;28.57;27.37
75536;BME280;64119;52.070;20.804;2022-10-13T08:28:56;101244.58;;;29.22;26.60
75536;BME280;64119;52.070;20.804;2022-10-13T08:31:43;101238.79;;;29.59;24.45
75536;BME280;64119;52.070;20.804;2022-10-13T08:34:10;101239.18;;;29.11;25.39
75536;BME280;64119;52.070;20.804;2022-10-13T08:36:37;101230.13;;;29.39;24.87
75536;BME280;64119;52.070;20.804;2022-10-13T08:39:04;101235.29;;;29.32;24.92
75536;BME280;64119;52.070;20.804;2022-10-13T08:41:35;101237.20;;;30.10;23.84
75536;BME280;64119;52.070;20.804;2022-10-13T08:44:05;101234.12;;;30.01;24.37
75536;BME280;64119;52.070;20.804;2022-10-13T08:49:29;101226.63;;;30.50;23.26
75536;BME280;64119;52.070;20.804;2022-10-13T08:51:56;101226.85;;;30.56;23.13
75536;BME280;64119;52.070;20.804;2022-10-13T08:54:24;101226.12;;;30.30;23.11
75536;BME280;64119;52.070;20.804;2022-10-13T08:56:52;101225.94;;;30.35;23.96
75536;BME280;64119;52.070;20.804;2022-10-13T08:59:18;101220.12;;;30.96;22.60
75536;BME280;64119;52.070;20.804;2022-10-13T09:01:47;101215.48;;;30.67;22.15
75536;BME280;64119;52.070;20.804;2022-10-13T09:04:33;101221.64;;;30.30;22.73
75536;BME280;64119;52.070;20.804;2022-10-13T09:09:38;101215.46;;;30.25;22.67
75536;BME280;64119;52.070;20.804;2022-10-13T09:12:05;101216.66;;;30.90;22.73
75536;BME280;64119;52.070;20.804;2022-10-13T09:14:37;101214.52;;;31.43;21.95
75536;BME280;64119;52.070;20.804;2022-10-13T09:19:43;101215.02;;;31.11;21.77
75536;BME280;64119;52.070;20.804;2022-10-13T09:24:47;101209.90;;;31.74;21.72
75536;BME280;64119;52.070;20.804;2022-10-13T09:27:15;101210.39;;;32.25;20.74
75536;BME280;64119;52.070;20.804;2022-10-13T09:29:43;101204.37;;;32.32;19.98
75536;BME280;64119;52.070;20.804;2022-10-13T09:32:18;101201.05;;;32.17;20.23
75536;BME280;64119;52.070;20.804;2022-10-13T09:34:46;101195.33;;;31.93;19.87
75536;BME280;64119;52.070;20.804;2022-10-13T09:37:21;101195.85;;;31.58;20.60
75536;BME280;64119;52.070;20.804;2022-10-13T09:40:20;101195.00;;;31.88;20.29
75536;BME280;64119;52.070;20.804;2022-10-13T09:42:51;101187.11;;;32.31;19.91
75536;BME280;64119;52.070;20.804;2022-10-13T09:45:20;101186.14;;;32.37;19.97
75536;BME280;64119;52.070;20.804;2022-10-13T09:47:52;101183.42;;;32.88;20.42
75536;BME280;64119;52.070;20.804;2022-10-13T09:50:23;101184.63;;;33.39;19.23
75536;BME280;64119;52.070;20.804;2022-10-13T09:52:51;101179.83;;;33.07;18.72
75536;BME280;64119;52.070;20.804;2022-10-13T09:55:30;101173.17;;;32.79;19.28
75536;BME280;64119;52.070;20.804;2022-10-13T09:58:05;101166.55;;;32.67;19.03
75536;BME280;64119;52.070;20.804;2022-10-13T10:00:35;101166.29;;;32.62;19.50
75536;BME280;64119;52.070;20.804;2022-10-13T10:03:13;101165.65;;;33.04;19.27
75536;BME280;64119;52.070;20.804;2022-10-13T10:06:01;101163.05;;;32.99;18.77
75536;BME280;64119;52.070;20.804;2022-10-13T10:11:39;101157.94;;;33.31;18.68
75536;BME280;64119;52.070;20.804;2022-10-13T10:19:52;101143.09;;;34.09;18.10
75536;BME280;64119;52.070;20.804;2022-10-13T10:22:33;101135.41;;;34.42;17.63
75536;BME280;64119;52.070;20.804;2022-10-13T10:27:39;101128.85;;;33.68;17.44
75536;BME280;64119;52.070;20.804;2022-10-13T10:30:18;101120.01;;;33.16;17.55
75536;BME280;64119;52.070;20.804;2022-10-13T10:32:47;101112.56;;;32.24;19.17
75536;BME280;64119;52.070;20.804;2022-10-13T10:36:22;101104.73;;;32.41;18.81
75536;BME280;64119;52.070;20.804;2022-10-13T10:38:37;101107.02;;;31.11;19.93
75536;BME280;64119;52.070;20.804;2022-10-13T10:46:38;101107.61;;;28.81;21.62
75536;BME280;64119;52.070;20.804;2022-10-13T10:49:16;101108.15;;;28.65;22.30
75536;BME280;64119;52.070;20.804;2022-10-13T10:51:44;101108.08;;;29.53;21.78
75536;BME280;64119;52.070;20.804;2022-10-13T10:54:17;101091.89;;;30.03;21.04
75536;BME280;64119;52.070;20.804;2022-10-13T10:56:52;101092.79;;;30.09;21.41
75536;BME280;64119;52.070;20.804;2022-10-13T10:59:40;101080.17;;;30.40;20.68
75536;BME280;64119;52.070;20.804;2022-10-13T11:04:54;101077.38;;;29.95;21.18
75536;BME280;64119;52.070;20.804;2022-10-13T11:14:46;101069.41;;;28.24;22.68
75536;BME280;64119;52.070;20.804;2022-10-13T11:17:28;101058.59;;;27.57;23.59
75536;BME280;64119;52.070;20.804;2022-10-13T11:19:56;101055.14;;;27.57;23.49
75536;BME280;64119;52.070;20.804;2022-10-13T11:22:28;101057.52;;;26.68;24.51
75536;BME280;64119;52.070;20.804;2022-10-13T11:24:58;101048.91;;;25.87;25.09
75536;BME280;64119;52.070;20.804;2022-10-13T11:27:26;101047.45;;;25.41;25.62
75536;BME280;64119;52.070;20.804;2022-10-13T11:30:04;101036.47;;;25.36;26.12
75536;BME280;64119;52.070;20.804;2022-10-13T11:38:02;101029.39;;;24.80;27.02
75536;BME280;64119;52.070;20.804;2022-10-13T11:43:51;101016.29;;;24.98;26.72
75536;BME280;64119;52.070;20.804;2022-10-13T11:46:25;101025.91;;;25.58;26.45
75536;BME280;64119;52.070;20.804;2022-10-13T11:49:21;101021.77;;;26.07;25.85
75536;BME280;64119;52.070;20.804;2022-10-13T11:52:16;101016.63;;;27.28;24.99
75536;BME280;64119;52.070;20.804;2022-10-13T11:54:56;101017.71;;;27.60;24.28
75536;BME280;64119;52.070;20.804;2022-10-13T11:57:26;101005.75;;;26.89;25.68
75536;BME280;64119;52.070;20.804;2022-10-13T11:59:55;101015.70;;;26.58;25.91
75536;BME280;64119;52.070;20.804;2022-10-13T12:02:50;101011.40;;;25.32;27.31
75536;BME280;64119;52.070;20.804;2022-10-13T12:07:49;101004.62;;;23.35;30.01
75536;BME280;64119;52.070;20.804;2022-10-13T12:10:29;101000.33;;;22.53;31.04
75536;BME280;64119;52.070;20.804;2022-10-13T12:12:57;100998.30;;;21.74;32.44
75536;BME280;64119;52.070;20.804;2022-10-13T12:17:53;100997.09;;;20.56;34.40
75536;BME280;64119;52.070;20.804;2022-10-13T12:20:31;101003.06;;;19.84;35.66
75536;BME280;64119;52.070;20.804;2022-10-13T12:22:58;100996.48;;;19.20;36.70
75536;BME280;64119;52.070;20.804;2022-10-13T12:25:27;100997.42;;;18.82;37.65
75536;BME280;64119;52.070;20.804;2022-10-13T12:27:58;100994.66;;;18.51;38.03
75536;BME280;64119;52.070;20.804;2022-10-13T12:30:30;100992.45;;;18.32;38.19
75536;BME280;64119;52.070;20.804;2022-10-13T12:33:02;100992.70;;;18.13;38.95
75536;BME280;64119;52.070;20.804;2022-10-13T12:35:32;100982.48;;;17.89;39.57
75536;BME280;64119;52.070;20.804;2022-10-13T12:38:06;100983.84;;;17.71;39.96
75536;BME280;64119;52.070;20.804;2022-10-13T12:40:39;100969.34;;;17.56;40.28
75536;BME280;64119;52.070;20.804;2022-10-13T12:43:05;100975.89;;;17.47;40.85
75536;BME280;64119;52.070;20.804;2022-10-13T12:45:33;100976.27;;;17.25;41.13
75536;BME280;64119;52.070;20.804;2022-10-13T12:48:00;100974.80;;;17.17;41.51
75536;BME280;64119;52.070;20.804;2022-10-13T12:55:30;100963.09;;;16.76;42.75
75536;BME280;64119;52.070;20.804;2022-10-13T12:57:56;100967.36;;;16.71;42.94
75536;BME280;64119;52.070;20.804;2022-10-13T13:00:25;100959.66;;;16.79;42.25
75536;BME280;64119;52.070;20.804;2022-10-13T13:02:58;100955.37;;;16.77;42.52
75536;BME280;64119;52.070;20.804;2022-10-13T13:08:27;100951.82;;;16.45;43.92
75536;BME280;64119;52.070;20.804;2022-10-13T13:11:00;100959.48;;;16.35;44.44
75536;BME280;64119;52.070;20.804;2022-10-13T13:13:27;100956.21;;;16.27;44.49
75536;BME280;64119;52.070;20.804;2022-10-13T13:18:39;100957.33;;;16.11;44.93
75536;BME280;64119;52.070;20.804;2022-10-13T13:21:11;100944.34;;;15.95;44.84
75536;BME280;64119;52.070;20.804;2022-10-13T13:23:39;100954.74;;;15.84;45.15
75536;BME280;64119;52.070;20.804;2022-10-13T13:26:13;100951.95;;;15.73;45.47
75536;BME280;64119;52.070;20.804;2022-10-13T13:31:13;100947.44;;;15.60;45.92
75536;BME280;64119;52.070;20.804;2022-10-13T13:33:41;100949.79;;;15.48;46.16
75536;BME280;64119;52.070;20.804;2022-10-13T13:36:25;100944.88;;;15.42;46.23
75536;BME280;64119;52.070;20.804;2022-10-13T13:38:52;100942.31;;;15.31;46.52
75536;BME280;64119;52.070;20.804;2022-10-13T13:41:20;100939.92;;;15.27;46.31
75536;BME280;64119;52.070;20.804;2022-10-13T13:43:46;100938.55;;;15.21;46.72
75536;BME280;64119;52.070;20.804;2022-10-13T13:46:16;100941.07;;;15.18;46.67
75536;BME280;64119;52.070;20.804;2022-10-13T13:48:44;100939.04;;;15.12;46.70
75536;BME280;64119;52.070;20.804;2022-10-13T13:51:10;100942.68;;;15.08;46.82
75536;BME280;64119;52.070;20.804;2022-10-13T13:53:37;100943.05;;;15.05;47.04
75536;BME280;64119;52.070;20.804;2022-10-13T13:56:04;100942.80;;;14.99;47.08
75536;BME280;64119;52.070;20.804;2022-10-13T13:58:30;100935.55;;;14.93;47.65
75536;BME280;64119;52.070;20.804;2022-10-13T14:01:00;100937.98;;;14.90;47.76
75536;BME280;64119;52.070;20.804;2022-10-13T14:03:26;100935.48;;;14.82;47.75
75536;BME280;64119;52.070;20.804;2022-10-13T14:05:52;100941.16;;;14.81;47.85
75536;BME280;64119;52.070;20.804;2022-10-13T14:08:19;100941.10;;;14.76;48.27
75536;BME280;64119;52.070;20.804;2022-10-13T14:10:45;100942.01;;;14.75;48.00
75536;BME280;64119;52.070;20.804;2022-10-13T14:13:16;100938.64;;;14.66;48.42
75536;BME280;64119;52.070;20.804;2022-10-13T14:15:43;100932.41;;;14.56;48.56
75536;BME280;64119;52.070;20.804;2022-10-13T14:18:09;100931.02;;;14.57;48.95
75536;BME280;64119;52.070;20.804;2022-10-13T14:20:39;100928.99;;;14.54;49.08
75536;BME280;64119;52.070;20.804;2022-10-13T14:23:07;100932.35;;;14.50;49.36
75536;BME280;64119;52.070;20.804;2022-10-13T14:25:33;100932.58;;;14.47;49.35
75536;BME280;64119;52.070;20.804;2022-10-13T14:27:59;100927.52;;;14.41;49.32